createdAt,value
2022-07-28T00:00:08.357Z,1016.88
2022-07-28T00:15:09.608Z,1016.83
2022-07-28T00:30:09.761Z,1016.79
2022-07-28T00:45:11.325Z,1016.84
2022-07-28T01:00:11.266Z,1016.96
2022-07-28T01:15:11.922Z,1016.98
2022-07-28T01:30:12.535Z,1017.01
2022-07-28T01:45:12.772Z,1017.04
2022-07-28T02:00:12.944Z,1016.95
2022-07-28T02:15:13.571Z,1016.93
2022-07-28T02:30:14.205Z,1017.00
2022-07-28T02:45:14.406Z,1017.01
2022-07-28T03:00:14.633Z,1017.10
2022-07-28T03:15:14.788Z,1017.24
2022-07-28T03:30:15.040Z,1017.38
2022-07-28T03:45:15.219Z,1017.48
2022-07-28T04:00:15.463Z,1017.53
2022-07-28T04:15:15.615Z,1017.64
2022-07-28T04:30:16.823Z,1017.73
2022-07-28T04:45:17.459Z,1017.79
2022-07-28T05:00:17.739Z,1017.84
2022-07-28T05:15:17.954Z,1017.81
2022-07-28T05:30:18.106Z,1017.92
2022-07-28T05:45:18.277Z,1018.06
2022-07-28T06:00:18.885Z,1018.11
2022-07-28T06:15:19.580Z,1018.16
2022-07-28T06:30:19.713Z,1018.28
2022-07-28T06:45:21.146Z,1018.32
2022-07-28T07:00:22.227Z,1018.29
2022-07-28T07:15:23.298Z,1018.05
2022-07-28T07:30:23.517Z,1018.18
2022-07-28T07:45:23.709Z,1018.27
2022-07-28T08:00:28.722Z,1018.26
2022-07-28T08:15:29.117Z,1018.21
2022-07-28T08:30:32.683Z,1018.13
2022-07-28T08:45:37.025Z,1018.30
2022-07-28T09:00:37.182Z,1018.17
2022-07-28T09:15:38.403Z,1018.23
2022-07-28T09:30:51.822Z,1018.27
2022-07-28T09:45:45.678Z,1018.25
2022-07-28T10:00:45.759Z,1018.20
2022-07-28T10:15:50.840Z,1018.04
2022-07-28T10:30:51.037Z,1017.97
2022-07-28T10:46:05.514Z,1017.83
2022-07-28T11:01:05.108Z,1017.93
2022-07-28T11:16:02.510Z,1017.80
2022-07-28T11:31:02.721Z,1017.74
2022-07-28T11:46:03.010Z,1017.63
2022-07-28T12:01:03.059Z,1017.55
2022-07-28T12:16:03.333Z,1017.50
2022-07-28T12:31:03.457Z,1017.37
2022-07-28T12:46:08.770Z,1017.35
2022-07-28T13:01:08.816Z,1017.24
2022-07-28T13:16:09.133Z,1017.09
2022-07-28T13:31:09.289Z,1017.06
2022-07-28T13:46:09.557Z,1016.93
2022-07-28T14:01:09.892Z,1016.88
2022-07-28T14:16:14.616Z,1016.87
2022-07-28T14:31:15.222Z,1016.77
2022-07-28T14:46:20.868Z,1016.57
2022-07-28T15:01:20.456Z,1016.48
2022-07-28T15:16:20.626Z,1016.48
2022-07-28T15:31:20.933Z,1016.47
2022-07-28T15:46:21.048Z,1016.39
2022-07-28T16:01:21.251Z,1016.31
2022-07-28T16:16:21.859Z,1016.33
2022-07-28T16:31:22.586Z,1016.28
2022-07-28T16:46:22.745Z,1016.30
2022-07-28T17:01:23.413Z,1016.28
2022-07-28T17:16:23.633Z,1016.32
2022-07-28T17:31:24.279Z,1016.24
2022-07-28T17:46:26.729Z,1016.38
2022-07-28T18:01:27.598Z,1016.30
2022-07-28T18:16:27.798Z,1016.25
2022-07-28T18:31:27.968Z,1016.30
2022-07-28T18:46:28.099Z,1016.24
2022-07-28T19:01:28.263Z,1016.23
2022-07-28T19:16:28.415Z,1016.35
2022-07-28T19:31:28.617Z,1016.40
2022-07-28T19:46:28.795Z,1016.38
2022-07-28T20:01:29.410Z,1016.52
2022-07-28T20:16:30.173Z,1016.61
2022-07-28T20:31:30.747Z,1016.59
2022-07-28T20:46:30.984Z,1016.72
2022-07-28T21:01:31.079Z,1016.76
2022-07-28T21:16:31.419Z,1016.83
2022-07-28T21:31:31.473Z,1016.98
2022-07-28T21:46:31.646Z,1017.03
2022-07-28T22:01:32.021Z,1017.09
2022-07-28T22:16:32.833Z,1017.17
2022-07-28T22:31:33.179Z,1017.30
2022-07-28T22:46:33.383Z,1017.37
2022-07-28T23:01:33.517Z,1017.50
2022-07-28T23:16:33.686Z,1017.67
2022-07-28T23:31:34.373Z,1017.56
2022-07-28T23:46:35.086Z,1017.46
